Current | Forecast
Updated: 5:30 PM +09 on May 21, 2018
Observed at Chita, Russia
Temperature 43°F
Windchill 39°F
Humidity 53%
Dew Point 27°F
Wind SW at 7 mph
Pressure 29.74 in (Steady)
Conditions Scattered Clouds
Visibility 6.2 miles
UV 3 out of 16
Clouds Scattered Clouds (SCT) : 4300 ft
Yesterday's Maximum 77°F
Yesterday's Minimum 41°F approx.
Yesterday's Heating Degree Days 6 approx.
Sunrise4:26 AM +08
Sunset8:22 PM +08
Moon Rise10:19 AM +08
Moon Set1:00 AM +08
Moon PhaseMoon Phase
Waxing Crescent
Raw METARMETAR UIAA 210830Z 23003MPS 200V270 9999 SCT043CB 06/M03 Q1007 R29/CLRD70 NOSIG RMK QFE697/0929


Monday
. High: 53° F.
Tuesday
. High: 51° F.
Wednesday
. High: 42° F.
Thursday
. High: 46° F.
Friday
. High: 50° F.
Saturday
. High: 51° F.
Sunday
. High: 55° F.
Monday
. High: 64° F.

Units: English | Metric

Find the Weather for any City, State or Zipcode, or Country:

U.S. State List | Severe Weather | Tropical Storms | Ski Conditions
United States | Canada | Central America | South America | Asia | Europe | Australia | Africa | Islands

Weather Underground

© Copyright 2018
The Weather Company, LLC